Time;durP1;ratioP1;P1;durP2;ratioP2;P2;SDS_P1;SDS_P2;PMS_P1;PMS_P2;Temp;Humidity;BMP_temperature;BMP_pressure;BME280_temperature;BME280_humidity;BME280_pressure;Samples;Min_cycle;Max_cycle;Signal;HPM_P1;HPM_P2
2022/07/22 00:01:15;;;;;;;4.57;3.90;;;20.40;99.90;;;;;;5035710;28;20173;-75
2022/07/22 00:03:42;;;;;;;4.30;3.90;;;20.40;99.90;;;;;;5054015;28;20177;-75
2022/07/22 00:06:07;;;;;;;5.57;3.97;;;20.40;99.90;;;;;;5053029;28;20179;-74
2022/07/22 00:08:33;;;;;;;5.97;3.63;;;20.40;99.90;;;;;;5036698;28;20563;-74
2022/07/22 00:10:59;;;;;;;5.67;3.53;;;20.40;99.90;;;;;;5053521;28;20239;-74
2022/07/22 00:13:25;;;;;;;5.20;3.40;;;20.30;99.90;;;;;;5053532;28;20201;-74
2022/07/22 00:15:50;;;;;;;7.17;3.80;;;20.30;99.90;;;;;;5053186;28;20189;-74
2022/07/22 00:18:16;;;;;;;4.63;2.77;;;20.40;99.90;;;;;;5053449;28;20244;-74
2022/07/22 00:20:42;;;;;;;5.50;3.63;;;20.30;99.90;;;;;;5052951;28;20292;-74
2022/07/22 00:23:08;;;;;;;4.40;3.23;;;20.40;99.90;;;;;;5036124;28;20180;-74
2022/07/22 00:25:34;;;;;;;5.80;3.07;;;20.30;99.90;;;;;;5035562;28;20575;-75
2022/07/22 00:28:00;;;;;;;8.13;3.67;;;20.30;99.90;;;;;;5053528;28;20638;-74
2022/07/22 00:30:27;;;;;;;3.83;3.00;;;20.30;99.90;;;;;;5035222;28;21103;-74
2022/07/22 00:32:53;;;;;;;4.97;2.63;;;20.30;99.90;;;;;;5035003;28;20968;-75
2022/07/22 00:35:20;;;;;;;2.53;2.17;;;20.30;99.90;;;;;;5034873;28;20559;-75
2022/07/22 00:37:46;;;;;;;4.53;2.50;;;20.30;99.90;;;;;;5035441;28;20695;-75
2022/07/22 00:40:13;;;;;;;4.67;2.10;;;20.30;99.90;;;;;;5053126;28;20563;-75
2022/07/22 00:42:39;;;;;;;5.37;2.80;;;20.30;99.90;;;;;;5053150;28;20977;-75
2022/07/22 00:45:06;;;;;;;7.07;2.10;;;20.30;99.90;;;;;;5035392;28;20567;-75
2022/07/22 00:47:33;;;;;;;6.50;2.30;;;20.30;99.90;;;;;;5035405;28;20600;-75
2022/07/22 00:49:59;;;;;;;3.90;2.23;;;20.30;99.90;;;;;;5052709;28;20569;-75
2022/07/22 00:52:26;;;;;;;5.17;2.20;;;20.30;99.90;;;;;;5035170;28;20939;-74
2022/07/22 00:54:52;;;;;;;4.93;2.20;;;20.30;99.90;;;;;;5052474;28;20563;-74
2022/07/22 00:57:18;;;;;;;7.27;2.80;;;20.30;99.90;;;;;;5052779;28;20598;-75
2022/07/22 00:59:44;;;;;;;5.93;2.53;;;20.30;99.90;;;;;;5052432;28;20559;-75
2022/07/22 01:02:10;;;;;;;4.90;2.57;;;20.20;99.90;;;;;;5035011;28;20567;-74
2022/07/22 01:04:36;;;;;;;5.60;2.77;;;20.20;99.90;;;;;;5034165;28;20972;-74
2022/07/22 01:07:02;;;;;;;3.97;2.13;;;20.20;99.90;;;;;;5034899;28;20185;-74
2022/07/22 01:09:28;;;;;;;3.93;2.70;;;20.20;99.90;;;;;;5018352;28;20578;-74
2022/07/22 01:11:54;;;;;;;3.50;2.40;;;20.20;99.90;;;;;;5052391;28;20615;-74
2022/07/22 01:14:20;;;;;;;6.10;2.97;;;20.20;99.90;;;;;;5052041;28;20559;-74
2022/07/22 01:16:46;;;;;;;6.53;2.57;;;20.20;99.90;;;;;;5034740;28;20676;-73
2022/07/22 01:19:12;;;;;;;4.30;3.00;;;20.20;99.90;;;;;;5034659;28;20165;-74
2022/07/22 01:21:37;;;;;;;3.00;2.50;;;20.20;99.90;;;;;;5052687;28;20688;-73
2022/07/22 01:24:05;;;;;;;6.27;3.00;;;20.20;99.90;;;;;;5052083;28;20169;-74
2022/07/22 01:26:33;;;;;;;7.00;3.30;;;20.20;99.90;;;;;;5034465;28;20239;-74
2022/07/22 01:29:00;;;;;;;4.70;2.87;;;20.20;99.90;;;;;;5034562;28;20564;-74
2022/07/22 01:31:27;;;;;;;6.07;3.27;;;20.20;99.90;;;;;;5033380;28;20613;-73
2022/07/22 01:33:54;;;;;;;5.23;3.20;;;20.20;99.90;;;;;;5034422;28;20627;-74
2022/07/22 01:36:20;;;;;;;6.10;3.70;;;20.20;99.90;;;;;;5033901;28;20651;-73
2022/07/22 01:38:46;;;;;;;10.00;3.27;;;20.10;99.90;;;;;;5052186;28;20559;-74
2022/07/22 01:41:12;;;;;;;4.60;2.70;;;20.10;99.90;;;;;;5034057;28;20559;-74
2022/07/22 01:43:38;;;;;;;7.13;2.83;;;20.20;99.90;;;;;;5033538;28;20734;-74
2022/07/22 01:46:05;;;;;;;6.10;3.67;;;20.10;99.90;;;;;;5017108;28;20658;-74
2022/07/22 01:48:33;;;;;;;5.20;3.60;;;20.20;99.90;;;;;;5034136;28;20538;-73
2022/07/22 01:50:59;;;;;;;5.57;3.47;;;20.10;99.90;;;;;;5051838;28;20563;-74
2022/07/22 01:53:26;;;;;;;5.67;4.20;;;20.10;99.90;;;;;;5034203;28;20200;-75
2022/07/22 01:55:52;;;;;;;5.63;3.70;;;20.10;99.90;;;;;;5033631;28;20572;-74
2022/07/22 01:58:19;;;;;;;5.73;4.43;;;20.10;99.90;;;;;;5035090;28;20577;-73
2022/07/22 02:00:46;;;;;;;5.60;3.23;;;20.10;99.90;;;;;;5018246;28;20633;-74
2022/07/22 02:03:12;;;;;;;7.30;3.80;;;20.20;99.90;;;;;;5052684;28;21162;-74
2022/07/22 02:05:38;;;;;;;4.90;3.27;;;20.10;99.90;;;;;;5033714;28;20939;-74
2022/07/22 02:08:14;;;;;;;6.23;4.20;;;20.10;99.90;;;;;;5033975;28;20184;-74
2022/07/22 02:11:00;;;;;;;4.83;3.67;;;20.10;99.90;;;;;;5050727;28;20595;-75
2022/07/22 02:13:26;;;;;;;6.67;3.00;;;20.10;99.90;;;;;;5033814;28;21170;-75
2022/07/22 02:15:53;;;;;;;5.50;4.20;;;20.10;99.90;;;;;;5032816;28;20567;-75
2022/07/22 02:18:19;;;;;;;6.23;3.60;;;20.20;99.90;;;;;;5051474;28;20538;-75
2022/07/22 02:20:45;;;;;;;4.70;3.30;;;20.10;99.90;;;;;;5033402;28;20566;-74
2022/07/22 02:23:12;;;;;;;4.97;3.60;;;20.10;99.90;;;;;;5033971;28;20173;-75
2022/07/22 02:25:40;;;;;;;5.07;3.67;;;20.20;99.90;;;;;;5033077;28;20594;-74
2022/07/22 02:28:07;;;;;;;7.40;3.80;;;20.10;99.90;;;;;;5051573;28;20611;-74
2022/07/22 02:30:33;;;;;;;5.97;3.90;;;20.10;99.90;;;;;;5050939;28;20567;-74
2022/07/22 02:32:59;;;;;;;5.23;3.47;;;20.10;99.90;;;;;;5033544;28;20661;-74
2022/07/22 02:35:25;;;;;;;9.43;4.40;;;20.10;99.90;;;;;;5033737;28;20555;-75
2022/07/22 02:37:51;;;;;;;5.63;3.80;;;20.20;99.90;;;;;;5033694;28;20188;-74
2022/07/22 02:40:17;;;;;;;7.03;3.70;;;20.20;99.90;;;;;;5051083;28;20621;-75
2022/07/22 02:42:43;;;;;;;6.17;3.87;;;20.20;99.90;;;;;;5033549;28;20571;-75
2022/07/22 02:45:09;;;;;;;6.43;4.50;;;20.20;99.90;;;;;;5032867;28;20917;-75
2022/07/22 02:47:51;;;;;;;5.20;4.20;;;20.20;99.90;;;;;;5033450;28;20591;-75
2022/07/22 02:50:18;;;;;;;6.13;3.43;;;20.20;99.90;;;;;;5023724;28;20622;-75
2022/07/22 02:52:44;;;;;;;5.90;4.27;;;20.20;99.90;;;;;;5026027;28;20635;-75
2022/07/22 02:55:11;;;;;;;8.20;5.20;;;20.30;99.90;;;;;;5028259;28;20653;-75
2022/07/22 02:57:38;;;;;;;9.80;5.00;;;20.30;99.90;;;;;;5025091;28;20620;-75
2022/07/22 03:00:08;;;;;;;7.30;4.80;;;20.30;99.90;;;;;;5029981;28;20263;-75
2022/07/22 03:02:35;;;;;;;4.43;3.87;;;20.30;99.90;;;;;;5032346;28;20723;-75
2022/07/22 03:05:02;;;;;;;5.13;4.30;;;20.30;99.90;;;;;;5028512;28;20957;-75
2022/07/22 03:07:28;;;;;;;10.50;5.47;;;20.20;99.90;;;;;;5030047;28;20631;-75
2022/07/22 03:09:54;;;;;;;8.83;4.13;;;20.20;99.90;;;;;;5028782;28;20587;-75
2022/07/22 03:12:20;;;;;;;6.20;4.60;;;20.20;99.90;;;;;;5044040;28;20990;-75
2022/07/22 03:14:47;;;;;;;4.73;4.23;;;20.20;99.90;;;;;;5032808;28;20169;-74
2022/07/22 03:17:14;;;;;;;7.10;4.57;;;20.20;99.90;;;;;;5028349;28;20600;-75
2022/07/22 03:19:40;;;;;;;8.00;4.00;;;20.20;99.90;;;;;;5021498;28;20579;-75
2022/07/22 03:22:06;;;;;;;9.50;5.03;;;20.20;99.90;;;;;;5025101;28;20568;-75
2022/07/22 03:24:33;;;;;;;6.60;4.10;;;20.10;99.90;;;;;;5033264;28;20602;-75
2022/07/22 03:26:59;;;;;;;5.83;4.00;;;20.10;99.90;;;;;;5033726;28;20655;-75
2022/07/22 03:29:25;;;;;;;11.63;4.80;;;20.10;99.90;;;;;;5028649;28;20602;-75
2022/07/22 03:31:51;;;;;;;5.50;3.90;;;20.10;99.90;;;;;;5050802;28;20587;-75
2022/07/22 03:34:29;;;;;;;5.80;3.90;;;20.10;99.90;;;;;;5021546;28;20574;-75
2022/07/22 03:37:03;;;;;;;5.40;4.40;;;20.10;99.90;;;;;;5036868;28;20602;-75
2022/07/22 03:39:29;;;;;;;8.77;4.83;;;20.10;99.90;;;;;;5036687;28;20567;-75
2022/07/22 03:41:55;;;;;;;6.93;4.37;;;20.10;99.90;;;;;;5036253;28;20569;-75
2022/07/22 03:44:21;;;;;;;9.30;4.07;;;20.10;99.90;;;;;;5036047;28;20567;-75
2022/07/22 03:46:47;;;;;;;6.20;3.97;;;20.10;99.90;;;;;;5036291;28;20193;-75
2022/07/22 03:49:15;;;;;;;5.57;4.27;;;20.10;99.90;;;;;;5037330;28;21065;-75
2022/07/22 03:51:41;;;;;;;4.80;3.90;;;20.10;99.90;;;;;;5036070;28;20563;-75
2022/07/22 03:54:06;;;;;;;9.97;5.07;;;20.10;99.90;;;;;;5035878;28;20992;-75
2022/07/22 03:56:34;;;;;;;7.60;4.00;;;20.10;99.90;;;;;;5036261;28;20606;-75
2022/07/22 03:59:00;;;;;;;5.57;3.50;;;20.10;99.90;;;;;;5036467;28;20559;-75
2022/07/22 04:01:28;;;;;;;6.27;3.50;;;20.10;99.90;;;;;;5036123;28;20173;-74
2022/07/22 04:03:54;;;;;;;6.23;4.30;;;20.10;99.90;;;;;;5019704;28;21074;-74
2022/07/22 04:06:33;;;;;;;6.97;4.00;;;20.10;99.90;;;;;;5053242;28;20603;-74
2022/07/22 04:09:21;;;;;;;3.40;3.07;;;20.20;99.90;;;;;;5036277;28;20563;-74
2022/07/22 04:11:47;;;;;;;4.07;2.63;;;20.20;99.90;;;;;;5035335;28;20586;-74
2022/07/22 04:14:13;;;;;;;5.00;4.00;;;20.20;99.90;;;;;;5035783;28;20564;-74
2022/07/22 04:16:39;;;;;;;4.93;3.90;;;20.20;99.90;;;;;;5053764;28;20587;-74
2022/07/22 04:19:09;;;;;;;5.03;3.83;;;20.20;99.90;;;;;;5035979;28;20179;-74
2022/07/22 04:22:07;;;;;;;4.23;3.67;;;20.20;99.90;;;;;;5039537;28;20598;-74
2022/07/22 04:24:33;;;;;;;5.77;4.30;;;20.20;99.90;;;;;;5035715;28;21229;-74
2022/07/22 04:26:59;;;;;;;4.43;4.00;;;20.20;99.90;;;;;;5035687;28;20240;-75
2022/07/22 04:29:26;;;;;;;5.70;4.00;;;20.20;99.90;;;;;;5035750;28;20614;-75
2022/07/22 04:31:52;;;;;;;5.77;4.80;;;20.20;99.90;;;;;;5035423;28;20579;-74
2022/07/22 04:34:19;;;;;;;4.40;3.60;;;20.20;99.90;;;;;;5018616;28;20590;-75
2022/07/22 04:36:47;;;;;;;4.90;4.27;;;20.20;99.90;;;;;;5035543;28;20625;-75
2022/07/22 04:39:13;;;;;;;4.83;3.20;;;20.20;99.90;;;;;;5035553;28;20571;-74
2022/07/22 04:41:45;;;;;;;5.57;3.80;;;20.20;99.90;;;;;;5035403;28;20169;-74
2022/07/22 04:44:17;;;;;;;6.67;4.00;;;20.20;99.90;;;;;;5019471;28;20982;-73
2022/07/22 04:46:42;;;;;;;5.50;3.53;;;20.20;99.90;;;;;;5035375;28;20610;-73
2022/07/22 04:49:08;;;;;;;4.63;3.70;;;20.20;99.90;;;;;;5035530;28;20227;-73
2022/07/22 04:51:34;;;;;;;5.50;4.20;;;20.20;99.90;;;;;;5035173;28;20173;-74
2022/07/22 04:54:04;;;;;;;10.47;3.93;;;20.10;99.90;;;;;;5034492;28;20576;-75
2022/07/22 04:56:33;;;;;;;3.20;2.30;;;20.10;99.90;;;;;;5035221;28;20657;-74
2022/07/22 04:58:59;;;;;;;3.80;2.80;;;20.10;99.90;;;;;;5034968;28;21111;-74
2022/07/22 05:01:30;;;;;;;4.00;2.57;;;20.10;99.90;;;;;;5034790;28;20521;-74
2022/07/22 05:03:56;;;;;;;4.43;3.20;;;20.20;99.90;;;;;;5035002;28;20579;-73
2022/07/22 05:06:24;;;;;;;4.87;2.53;;;20.20;99.90;;;;;;5035555;28;20603;-77
2022/07/22 05:08:53;;;;;;;6.33;3.37;;;20.20;99.90;;;;;;5034724;28;20629;-77
2022/07/22 05:11:19;;;;;;;7.83;4.13;;;20.20;99.90;;;;;;5024092;28;20588;-77
2022/07/22 05:13:46;;;;;;;5.53;2.87;;;20.20;99.90;;;;;;4995933;28;20674;-77
2022/07/22 05:16:13;;;;;;;4.87;3.20;;;20.20;99.90;;;;;;5015850;28;20608;-77
2022/07/22 05:18:39;;;;;;;4.47;4.07;;;20.30;99.90;;;;;;5017435;28;20607;-78
2022/07/22 05:21:07;;;;;;;5.00;3.70;;;20.30;99.90;;;;;;5033253;28;21132;-77
2022/07/22 05:23:34;;;;;;;5.57;3.40;;;20.30;99.90;;;;;;5034287;28;20571;-77
2022/07/22 05:26:00;;;;;;;8.67;4.77;;;20.30;99.90;;;;;;5016378;28;20622;-77
2022/07/22 05:28:26;;;;;;;7.07;5.47;;;20.30;99.90;;;;;;5033976;28;20737;-77
2022/07/22 05:30:52;;;;;;;6.97;5.00;;;20.30;99.90;;;;;;5078163;22;20766;-77
2022/07/22 05:33:19;;;;;;;5.80;5.00;;;20.40;99.90;;;;;;5068300;28;20648;-76
2022/07/22 05:36:05;;;;;;;4.67;4.00;;;20.40;99.90;;;;;;5070529;28;20619;-76
2022/07/22 05:38:45;;;;;;;6.57;3.60;;;20.40;99.90;;;;;;5070933;28;20605;-76
2022/07/22 05:41:11;;;;;;;6.00;4.70;;;20.40;99.90;;;;;;5070668;28;20630;-76
2022/07/22 05:43:38;;;;;;;6.13;4.00;;;20.40;99.90;;;;;;5070880;28;20250;-77
2022/07/22 05:46:07;;;;;;;7.83;4.20;;;20.50;99.90;;;;;;5070435;28;20567;-77
2022/07/22 05:48:33;;;;;;;7.23;4.50;;;20.50;99.90;;;;;;5070956;28;21275;-77
2022/07/22 05:50:59;;;;;;;5.17;4.00;;;20.60;99.90;;;;;;5070557;28;20594;-77
2022/07/22 05:53:25;;;;;;;6.17;4.40;;;20.60;99.90;;;;;;5070511;28;20716;-75
2022/07/22 05:55:51;;;;;;;7.33;5.00;;;20.60;99.90;;;;;;5071234;28;21161;-76
2022/07/22 05:58:17;;;;;;;6.30;4.97;;;20.70;99.90;;;;;;5070697;28;20525;-76
2022/07/22 06:00:45;;;;;;;6.67;5.57;;;20.70;99.90;;;;;;5067142;28;20603;-77
2022/07/22 06:03:12;;;;;;;7.23;4.03;;;20.70;99.90;;;;;;5059233;28;20177;-76
2022/07/22 06:05:38;;;;;;;7.40;3.93;;;20.80;99.90;;;;;;5071280;28;20582;-76
2022/07/22 06:08:06;;;;;;;4.13;3.53;;;20.80;99.90;;;;;;5070333;28;20266;-74
2022/07/22 06:10:42;;;;;;;5.47;3.87;;;20.80;99.90;;;;;;5070095;28;21156;-76
2022/07/22 06:13:08;;;;;;;9.60;5.47;;;20.80;99.90;;;;;;5049699;28;20635;-75
2022/07/22 06:15:34;;;;;;;7.00;4.63;;;20.90;99.90;;;;;;5051084;28;20568;-74
2022/07/22 06:18:01;;;;;;;6.37;4.90;;;20.90;99.90;;;;;;5045761;28;20588;-74
2022/07/22 06:20:27;;;;;;;6.87;5.10;;;20.90;99.90;;;;;;5053993;28;20653;-74
2022/07/22 06:22:53;;;;;;;6.47;4.73;;;20.90;99.90;;;;;;5049955;28;20575;-76
2022/07/22 06:25:19;;;;;;;7.83;5.50;;;21.00;99.90;;;;;;5033696;28;20224;-76
2022/07/22 06:27:44;;;;;;;7.17;5.30;;;21.00;99.90;;;;;;5031633;28;20592;-76
2022/07/22 06:30:11;;;;;;;10.40;4.87;;;21.00;99.90;;;;;;5046223;28;20572;-75
2022/07/22 06:32:37;;;;;;;5.70;5.20;;;21.00;99.90;;;;;;5046667;28;20616;-75
2022/07/22 06:35:04;;;;;;;8.90;5.70;;;21.10;99.90;;;;;;5029223;28;20937;-75
2022/07/22 06:37:30;;;;;;;5.90;5.30;;;21.10;99.90;;;;;;5047002;28;20667;-75
2022/07/22 06:39:56;;;;;;;5.87;5.00;;;21.10;99.90;;;;;;5014435;28;20675;-74
2022/07/22 06:42:27;;;;;;;5.43;4.80;;;21.10;99.90;;;;;;5030462;28;21127;-74
2022/07/22 06:45:05;;;;;;;7.20;4.20;;;21.10;99.90;;;;;;5030969;28;20608;-74
2022/07/22 06:47:55;;;;;;;4.50;3.90;;;21.10;99.90;;;;;;5030849;28;20600;-74
2022/07/22 06:50:22;;;;;;;4.57;4.10;;;21.10;99.90;;;;;;5029550;28;21072;-74
2022/07/22 06:52:48;;;;;;;5.80;4.50;;;21.10;99.90;;;;;;5029971;28;20707;-74
2022/07/22 06:55:15;;;;;;;3.33;2.97;;;21.10;99.90;;;;;;5029463;28;20568;-74
2022/07/22 06:57:47;;;;;;;7.37;3.47;;;21.10;99.90;;;;;;5029811;28;20572;-76
2022/07/22 07:00:15;;;;;;;4.07;2.70;;;21.10;99.90;;;;;;5029533;28;20608;-76
2022/07/22 07:03:15;;;;;;;2.93;2.50;;;21.20;99.90;;;;;;5029875;28;20663;-76
2022/07/22 07:05:41;;;;;;;2.20;1.60;;;21.20;99.90;;;;;;5029003;28;20613;-76
2022/07/22 07:08:07;;;;;;;4.17;1.67;;;21.30;99.90;;;;;;5013291;28;20584;-76
2022/07/22 07:10:33;;;;;;;2.57;1.83;;;21.30;99.90;;;;;;5029226;28;20599;-76
2022/07/22 07:13:08;;;;;;;4.47;1.57;;;21.30;99.90;;;;;;5013260;28;20662;-76
2022/07/22 07:15:41;;;;;;;5.70;2.13;;;21.40;99.90;;;;;;5032060;28;20576;-76
2022/07/22 07:18:08;;;;;;;2.37;1.20;;;21.40;99.90;;;;;;5029641;28;20575;-76
2022/07/22 07:20:35;;;;;;;6.90;1.87;;;21.40;99.90;;;;;;5045699;28;20608;-76
2022/07/22 07:23:03;;;;;;;4.87;1.37;;;21.40;99.90;;;;;;5046128;28;20560;-76
2022/07/22 07:25:32;;;;;;;3.40;1.67;;;21.40;99.90;;;;;;5029136;28;20840;-76
2022/07/22 07:27:59;;;;;;;2.20;1.43;;;21.50;99.90;;;;;;5029575;28;20633;-76
2022/07/22 07:30:48;;;;;;;3.03;1.50;;;21.50;99.90;;;;;;5030374;28;20651;-76
2022/07/22 07:33:14;;;;;;;2.70;2.10;;;21.50;99.90;;;;;;5029494;28;20674;-76
2022/07/22 07:35:40;;;;;;;3.93;2.07;;;21.50;99.90;;;;;;5029294;28;20672;-76
2022/07/22 07:38:07;;;;;;;4.13;1.83;;;21.50;99.90;;;;;;5029782;28;20675;-76
2022/07/22 07:40:33;;;;;;;2.60;1.87;;;21.50;99.90;;;;;;5013159;28;20642;-76
2022/07/22 07:42:59;;;;;;;4.10;1.83;;;21.50;99.90;;;;;;5033784;28;20604;-76
2022/07/22 07:45:25;;;;;;;2.07;1.70;;;21.60;99.90;;;;;;5032793;28;20174;-75
2022/07/22 07:47:51;;;;;;;4.40;2.30;;;21.70;99.90;;;;;;5034110;28;20625;-76
2022/07/22 07:50:17;;;;;;;2.47;1.60;;;21.70;99.90;;;;;;5032777;28;20659;-76
2022/07/22 07:52:47;;;;;;;2.60;1.60;;;21.80;99.90;;;;;;5019992;28;20205;-76
2022/07/22 07:55:14;;;;;;;3.77;1.93;;;21.80;99.90;;;;;;5032622;28;20174;-76
2022/07/22 07:57:43;;;;;;;3.50;1.73;;;21.90;99.90;;;;;;5049815;28;20671;-76
2022/07/22 08:00:13;;;;;;;3.80;2.00;;;21.90;99.90;;;;;;5032611;28;20588;-76
2022/07/22 08:02:46;;;;;;;3.90;1.97;;;21.90;99.90;;;;;;5049400;28;20711;-76
2022/07/22 08:05:12;;;;;;;4.40;1.73;;;22.00;99.90;;;;;;5032378;28;20577;-76
2022/07/22 08:07:38;;;;;;;5.00;2.37;;;22.00;99.90;;;;;;5016351;28;20572;-76
2022/07/22 08:10:06;;;;;;;2.87;2.13;;;22.00;99.90;;;;;;5032447;28;21305;-76
2022/07/22 08:12:50;;;;;;;5.37;3.03;;;22.00;99.90;;;;;;5034066;28;20623;-76
2022/07/22 08:15:29;;;;;;;6.73;3.53;;;22.10;99.90;;;;;;5033552;28;20571;-76
2022/07/22 08:17:56;;;;;;;5.47;2.20;;;22.10;99.90;;;;;;5049679;28;20630;-76
2022/07/22 08:20:25;;;;;;;5.50;2.67;;;22.10;99.90;;;;;;5033388;28;20636;-76
2022/07/22 08:22:51;;;;;;;4.80;2.80;;;22.10;99.90;;;;;;5032690;28;21166;-76
2022/07/22 08:25:18;;;;;;;3.97;2.20;;;22.20;99.90;;;;;;5036495;28;20580;-76
2022/07/22 08:27:44;;;;;;;3.30;2.40;;;22.30;99.90;;;;;;5034931;28;20576;-76
2022/07/22 08:30:11;;;;;;;3.77;2.63;;;22.30;99.90;;;;;;5032177;28;20616;-76
2022/07/22 08:32:38;;;;;;;3.20;2.70;;;22.40;99.90;;;;;;5032043;28;20723;-76
2022/07/22 08:35:04;;;;;;;3.97;2.63;;;22.40;99.90;;;;;;5031692;28;20568;-76
2022/07/22 08:37:30;;;;;;;2.83;2.13;;;22.50;99.90;;;;;;5032350;28;20975;-76
2022/07/22 08:39:58;;;;;;;3.93;2.30;;;22.60;99.90;;;;;;5048608;28;20680;-76
2022/07/22 08:42:24;;;;;;;4.50;2.33;;;22.60;99.90;;;;;;5032408;28;20910;-76
2022/07/22 08:44:52;;;;;;;3.13;2.30;;;22.80;99.90;;;;;;5033049;28;20576;-76
2022/07/22 08:47:24;;;;;;;6.07;2.27;;;22.90;99.90;;;;;;5033349;28;20575;-76
2022/07/22 08:50:13;;;;;;;4.20;2.83;;;23.00;99.90;;;;;;5029772;28;20727;-76
2022/07/22 08:52:49;;;;;;;4.60;3.10;;;23.10;99.90;;;;;;5033102;28;20722;-76
2022/07/22 08:55:15;;;;;;;6.20;4.20;;;23.20;99.90;;;;;;5032855;28;21159;-75
2022/07/22 08:57:46;;;;;;;5.70;3.83;;;23.20;99.90;;;;;;5032166;28;20170;-76
2022/07/22 09:00:18;;;;;;;4.90;3.30;;;23.20;99.90;;;;;;5033037;28;20596;-76
2022/07/22 09:02:45;;;;;;;4.07;3.23;;;23.30;99.90;;;;;;5048633;28;20577;-76
2022/07/22 09:05:14;;;;;;;3.20;2.10;;;23.40;99.90;;;;;;5050417;28;20560;-76
2022/07/22 09:07:43;;;;;;;6.40;3.60;;;23.50;99.90;;;;;;5031814;28;21166;-76
2022/07/22 09:10:19;;;;;;;3.40;2.80;;;23.60;99.90;;;;;;5031308;28;20612;-76
2022/07/22 09:13:23;;;;;;;4.60;3.17;;;23.70;99.90;;;;;;5030421;28;20734;-76
2022/07/22 09:16:43;;;;;;;3.20;2.90;;;23.70;99.90;;;;;;5021053;28;20654;-76
2022/07/22 09:19:32;;;;;;;4.80;3.73;;;23.80;99.90;;;;;;5031092;28;20623;-76
2022/07/22 09:22:42;;;;;;;4.50;3.40;;;24.00;99.90;;;;;;5031866;28;21138;-76
2022/07/22 09:25:33;;;;;;;5.97;3.13;;;24.00;99.90;;;;;;5031042;28;20668;-76
2022/07/22 09:28:20;;;;;;;3.10;2.80;;;24.10;99.90;;;;;;5032445;28;20622;-76
2022/07/22 09:31:05;;;;;;;6.70;3.70;;;24.20;99.90;;;;;;5031824;28;20620;-76
2022/07/22 09:33:36;;;;;;;3.93;3.53;;;24.30;99.90;;;;;;5047837;28;20663;-76
2022/07/22 09:36:23;;;;;;;5.10;3.53;;;24.40;99.90;;;;;;5031777;28;20596;-76
2022/07/22 09:38:50;;;;;;;3.70;3.40;;;24.50;99.90;;;;;;5047756;28;20931;-77
2022/07/22 09:41:17;;;;;;;4.70;3.70;;;24.60;99.90;;;;;;5048290;28;20576;-76
2022/07/22 09:43:43;;;;;;;3.70;3.40;;;24.70;99.90;;;;;;5016913;28;20699;-74
2022/07/22 09:46:10;;;;;;;4.30;3.60;;;24.90;99.90;;;;;;5030153;28;20608;-75
2022/07/22 09:48:56;;;;;;;4.97;3.80;;;25.10;99.90;;;;;;5030793;28;20592;-75
2022/07/22 09:51:37;;;;;;;5.03;4.63;;;25.20;99.90;;;;;;5047379;28;20580;-75
2022/07/22 09:54:15;;;;;;;3.80;3.50;;;25.40;99.90;;;;;;5030298;28;20703;-75
2022/07/22 09:56:41;;;;;;;4.67;4.13;;;25.60;99.90;;;;;;5031971;28;20627;-74
2022/07/22 09:59:07;;;;;;;4.33;4.03;;;25.70;99.90;;;;;;5030619;28;20568;-75
2022/07/22 10:01:42;;;;;;;5.10;3.77;;;25.80;99.90;;;;;;5030448;28;20581;-75
2022/07/22 10:04:11;;;;;;;4.37;3.77;;;26.00;99.90;;;;;;5029348;28;20639;-75
2022/07/22 10:06:39;;;;;;;7.33;3.80;;;26.20;99.90;;;;;;5030741;28;20576;-75
2022/07/22 10:09:11;;;;;;;4.43;3.30;;;26.60;99.90;;;;;;5047277;28;20580;-74
2022/07/22 10:11:44;;;;;;;3.70;3.40;;;27.00;99.90;;;;;;5046787;28;21151;-74
2022/07/22 10:14:16;;;;;;;5.13;4.33;;;27.60;99.90;;;;;;4997054;28;20642;-75
2022/07/22 10:16:43;;;;;;;4.73;4.30;;;28.10;99.90;;;;;;5030952;28;20572;-74
2022/07/22 10:19:10;;;;;;;6.10;5.60;;;28.50;99.90;;;;;;5049032;28;20593;-74
2022/07/22 10:21:37;;;;;;;5.07;4.63;;;28.80;99.90;;;;;;5030578;28;20581;-75
2022/07/22 10:24:10;;;;;;;5.20;4.30;;;29.00;99.90;;;;;;5030080;28;20910;-75
2022/07/22 10:26:55;;;;;;;6.53;3.80;;;29.40;99.90;;;;;;5046832;28;20942;-75
2022/07/22 10:29:28;;;;;;;5.67;4.70;;;29.60;99.90;;;;;;5031085;28;20604;-75
2022/07/22 10:32:17;;;;;;;4.27;3.27;;;29.90;99.90;;;;;;5031191;28;20572;-75
2022/07/22 10:34:55;;;;;;;4.67;3.60;;;30.20;99.90;;;;;;5040061;28;20731;-75
2022/07/22 10:37:40;;;;;;;4.27;3.87;;;30.70;99.90;;;;;;5031405;28;20579;-75
2022/07/22 10:40:21;;;;;;;4.57;4.17;;;31.00;99.90;;;;;;5029820;28;20624;-75
2022/07/22 10:42:58;;;;;;;5.37;4.87;;;31.20;99.90;;;;;;5030075;28;20569;-75
2022/07/22 10:45:25;;;;;;;5.40;4.90;;;31.20;99.90;;;;;;5030729;28;20572;-75
2022/07/22 10:47:59;;;;;;;5.87;4.67;;;31.30;99.90;;;;;;5031307;28;20585;-75
2022/07/22 10:50:37;;;;;;;5.30;4.80;;;31.30;99.90;;;;;;5035640;28;20614;-75
2022/07/22 10:53:08;;;;;;;4.87;4.40;;;31.30;99.50;;;;;;5061387;28;21193;-75
2022/07/22 10:55:34;;;;;;;6.27;5.37;;;31.40;99.50;;;;;;5066477;28;20594;-75
2022/07/22 10:58:00;;;;;;;4.40;4.00;;;31.20;98.50;;;;;;5041438;28;20640;-75
2022/07/22 11:00:27;;;;;;;4.87;4.47;;;31.10;98.70;;;;;;5068606;28;20599;-75
2022/07/22 11:02:52;;;;;;;5.00;4.33;;;31.00;98.00;;;;;;5070029;28;20590;-75
2022/07/22 11:05:29;;;;;;;5.00;4.50;;;30.80;97.30;;;;;;5070577;28;20605;-74
2022/07/22 11:07:55;;;;;;;4.87;4.40;;;30.60;97.00;;;;;;5071274;28;20182;-74
2022/07/22 11:10:21;;;;;;;6.40;5.17;;;30.50;97.10;;;;;;5069258;28;20602;-74
2022/07/22 11:12:49;;;;;;;5.27;3.93;;;30.40;97.10;;;;;;5052673;28;20203;-74
2022/07/22 11:15:15;;;;;;;5.23;4.30;;;30.30;97.40;;;;;;5070857;28;20573;-74
2022/07/22 11:17:41;;;;;;;5.60;5.10;;;30.40;97.10;;;;;;5074920;28;20595;-75
2022/07/22 11:20:13;;;;;;;5.57;4.60;;;30.40;97.30;;;;;;5073142;28;20675;-75
2022/07/22 11:22:40;;;;;;;5.60;5.03;;;30.40;96.80;;;;;;5090335;28;21167;-75
2022/07/22 11:25:09;;;;;;;6.67;5.97;;;30.40;96.00;;;;;;5074211;28;20586;-76
2022/07/22 11:27:34;;;;;;;5.77;4.47;;;30.40;96.50;;;;;;5074584;28;20574;-75
2022/07/22 11:30:03;;;;;;;5.90;5.40;;;30.70;97.10;;;;;;5072739;28;20627;-75
2022/07/22 11:32:31;;;;;;;6.07;5.57;;;31.00;97.40;;;;;;5076693;28;20684;-75
2022/07/22 11:34:58;;;;;;;7.33;5.40;;;31.20;95.00;;;;;;5074616;28;20573;-73
2022/07/22 11:37:25;;;;;;;5.97;5.37;;;31.30;95.00;;;;;;5074282;28;21123;-73
2022/07/22 11:39:59;;;;;;;6.03;5.43;;;31.40;94.30;;;;;;5073990;28;21565;-73
2022/07/22 11:42:26;;;;;;;6.40;5.80;;;31.40;93.20;;;;;;5074486;28;20583;-73
2022/07/22 11:44:52;;;;;;;7.30;6.63;;;31.30;92.80;;;;;;5074193;28;20586;-73
2022/07/22 11:47:17;;;;;;;6.87;6.20;;;31.20;92.60;;;;;;5074287;28;20570;-74
2022/07/22 11:49:46;;;;;;;7.47;6.50;;;31.00;92.30;;;;;;5074050;28;20949;-73
2022/07/22 11:52:12;;;;;;;6.00;5.50;;;31.00;91.60;;;;;;5074231;28;20701;-74
2022/07/22 11:54:39;;;;;;;5.20;4.70;;;30.80;91.70;;;;;;5073634;28;20571;-73
2022/07/22 11:57:06;;;;;;;6.93;6.33;;;30.70;92.10;;;;;;5074389;28;20172;-73
2022/07/22 11:59:34;;;;;;;6.77;6.07;;;30.80;92.70;;;;;;5074106;28;20590;-73
2022/07/22 12:02:01;;;;;;;6.90;6.20;;;31.00;93.60;;;;;;5073896;28;20568;-74
2022/07/22 12:04:29;;;;;;;6.50;6.00;;;31.20;93.10;;;;;;5073634;28;20634;-73
2022/07/22 12:06:58;;;;;;;7.23;6.63;;;31.30;91.70;;;;;;5072794;28;20582;-73
2022/07/22 12:09:26;;;;;;;6.60;6.10;;;31.30;90.90;;;;;;5075329;28;20642;-73
2022/07/22 12:11:55;;;;;;;7.60;6.90;;;31.30;90.50;;;;;;5073729;28;20608;-73
2022/07/22 12:14:24;;;;;;;7.20;6.20;;;31.30;89.90;;;;;;5072226;28;21168;-73
2022/07/22 12:16:54;;;;;;;6.37;5.77;;;31.30;90.70;;;;;;5073928;28;20562;-73
2022/07/22 12:19:21;;;;;;;6.73;6.13;;;31.40;90.60;;;;;;5072596;28;20621;-73
2022/07/22 12:21:52;;;;;;;6.50;5.90;;;31.50;90.10;;;;;;5073429;28;20565;-73
2022/07/22 12:24:29;;;;;;;6.47;5.97;;;31.50;89.90;;;;;;5073196;28;20563;-72
2022/07/22 12:26:57;;;;;;;8.30;6.17;;;31.50;88.90;;;;;;5072000;28;21195;-74
2022/07/22 12:29:41;;;;;;;6.10;5.60;;;31.50;88.80;;;;;;5073390;28;20607;-74
2022/07/22 12:32:16;;;;;;;6.10;5.60;;;31.40;88.60;;;;;;5055710;28;20670;-74
2022/07/22 12:34:55;;;;;;;6.27;5.63;;;31.30;86.50;;;;;;5071651;28;21140;-74
2022/07/22 12:37:26;;;;;;;6.83;6.20;;;31.10;85.30;;;;;;5073722;28;20566;-74
2022/07/22 12:40:05;;;;;;;6.57;6.07;;;31.00;84.60;;;;;;5071858;28;21008;-74
2022/07/22 12:42:39;;;;;;;6.77;5.73;;;30.90;85.00;;;;;;5073338;28;20563;-73
2022/07/22 12:45:09;;;;;;;6.90;5.90;;;30.80;83.80;;;;;;5073626;28;20585;-74
2022/07/22 12:47:39;;;;;;;9.10;5.93;;;30.70;84.60;;;;;;5072928;28;20590;-74
2022/07/22 12:50:24;;;;;;;6.43;5.87;;;30.60;84.70;;;;;;5071512;28;20638;-74
2022/07/22 12:53:05;;;;;;;7.20;6.50;;;30.50;85.60;;;;;;5072915;28;20705;-73
2022/07/22 12:55:32;;;;;;;6.30;5.70;;;30.50;84.90;;;;;;5071521;28;20631;-74
2022/07/22 12:57:58;;;;;;;6.27;5.60;;;30.40;85.00;;;;;;5072007;28;20665;-74